Time,TemperatureF,DewpointF,PressureIn,WindDirection,WindDirectionDegrees,WindSpeedMPH,WindSpeedGustMPH,Humidity,HourlyPrecipIn,Conditions,Clouds,dailyrainin,SoftwareType,DateUTC
2013-09-03 00:01:00,65.3,62.6,29.79,WNW,295,2.0,5.0,91,0.00,,,0.00,meteohub,2013-09-03 04:01:00,
2013-09-03 00:02:00,65.3,63.0,29.79,WNW,295,0.0,5.0,92,0.00,,,0.00,meteohub,2013-09-03 04:02:00,
2013-09-03 00:07:00,65.1,62.8,29.79,West,275,1.0,5.0,92,0.00,,,0.00,meteohub,2013-09-03 04:07:00,
2013-09-03 00:12:00,64.9,62.6,29.79,West,281,4.0,5.0,92,0.00,,,0.00,meteohub,2013-09-03 04:12:00,
2013-09-03 00:17:00,64.9,62.6,29.80,WNW,286,4.0,5.0,92,0.00,,,0.00,meteohub,2013-09-03 04:17:00,
2013-09-03 00:22:00,64.9,62.6,29.79,WNW,291,0.0,5.0,92,0.00,,,0.00,meteohub,2013-09-03 04:22:00,
2013-09-03 00:27:00,64.8,62.4,29.79,WNW,291,0.0,5.0,92,0.00,,,0.00,meteohub,2013-09-03 04:27:00,
2013-09-03 00:32:00,64.6,62.2,29.79,WNW,291,0.0,4.0,92,0.00,,,0.00,meteohub,2013-09-03 04:32:00,
2013-09-03 00:37:00,64.4,62.4,29.80,WNW,291,0.0,1.0,93,0.00,,,0.00,meteohub,2013-09-03 04:37:00,
2013-09-03 00:42:00,64.0,62.1,29.79,WNW,291,0.0,1.0,93,0.00,,,0.00,meteohub,2013-09-03 04:42:00,
2013-09-03 00:47:00,63.9,62.1,29.79,WNW,291,0.0,1.0,94,0.00,,,0.00,meteohub,2013-09-03 04:47:00,
2013-09-03 00:52:00,63.7,61.9,29.79,WNW,291,0.0,0.0,94,0.00,,,0.00,meteohub,2013-09-03 04:52:00,
2013-09-03 00:57:00,63.7,61.9,29.79,WNW,291,0.0,1.0,94,0.00,,,0.00,meteohub,2013-09-03 04:57:00,
2013-09-03 01:02:00,63.3,61.5,29.79,WNW,291,0.0,1.0,94,0.00,,,0.00,meteohub,2013-09-03 05:02:00,
2013-09-03 01:07:00,63.3,61.5,29.79,WNW,291,0.0,1.0,94,0.00,,,0.00,meteohub,2013-09-03 05:07:00,
2013-09-03 01:12:00,63.1,61.7,29.79,WNW,291,0.0,1.0,95,0.00,,,0.00,meteohub,2013-09-03 05:12:00,
2013-09-03 01:17:00,63.1,61.7,29.79,WNW,291,0.0,1.0,95,0.00,,,0.00,meteohub,2013-09-03 05:17:00,
2013-09-03 01:22:00,63.1,61.7,29.79,WNW,291,0.0,1.0,95,0.00,,,0.00,meteohub,2013-09-03 05:22:00,
2013-09-03 01:27:00,63.1,61.7,29.79,WNW,291,0.0,1.0,95,0.00,,,0.00,meteohub,2013-09-03 05:27:00,
2013-09-03 01:32:00,63.0,61.5,29.79,WNW,291,0.0,1.0,95,0.00,,,0.00,meteohub,2013-09-03 05:32:00,
2013-09-03 01:37:00,63.0,61.9,29.78,WNW,291,0.0,1.0,96,0.00,,,0.00,meteohub,2013-09-03 05:37:00,
2013-09-03 01:42:00,63.0,61.9,29.78,WNW,291,0.0,1.0,96,0.00,,,0.00,meteohub,2013-09-03 05:42:00,
2013-09-03 01:47:00,63.0,61.9,29.78,WNW,291,0.0,0.0,96,0.00,,,0.00,meteohub,2013-09-03 05:47:00,
2013-09-03 01:52:00,63.0,61.9,29.78,WNW,291,0.0,1.0,96,0.00,,,0.00,meteohub,2013-09-03 05:52:00,
2013-09-03 01:57:00,63.1,62.1,29.77,WNW,291,1.0,1.0,96,0.00,,,0.00,meteohub,2013-09-03 05:57:00,
2013-09-03 02:02:00,63.3,62.2,29.78,WNW,291,1.0,5.0,96,0.00,,,0.00,meteohub,2013-09-03 06:02:00,
2013-09-03 02:07:00,63.5,62.4,29.77,WNW,288,1.0,5.0,96,0.00,,,0.00,meteohub,2013-09-03 06:07:00,
2013-09-03 02:12:00,63.7,62.6,29.77,WNW,282,2.0,5.0,96,0.00,,,0.00,meteohub,2013-09-03 06:12:00,
2013-09-03 02:17:00,63.9,62.4,29.77,WNW,289,1.0,6.0,95,0.00,,,0.00,meteohub,2013-09-03 06:17:00,
2013-09-03 02:22:00,63.9,62.1,29.76,WNW,289,0.0,6.0,94,0.00,,,0.00,meteohub,2013-09-03 06:22:00,
2013-09-03 02:27:00,63.7,61.9,29.76,WNW,289,0.0,6.0,94,0.00,,,0.00,meteohub,2013-09-03 06:27:00,
2013-09-03 02:32:00,63.5,61.7,29.77,WNW,290,5.0,5.0,94,0.00,,,0.00,meteohub,2013-09-03 06:32:00,
2013-09-03 02:37:00,63.5,61.5,29.77,WNW,290,7.0,7.0,93,0.00,,,0.00,meteohub,2013-09-03 06:37:00,
2013-09-03 02:42:00,63.7,61.7,29.77,West,262,2.0,7.0,93,0.00,,,0.00,meteohub,2013-09-03 06:42:00,
2013-09-03 02:47:00,64.0,61.7,29.77,WNW,285,7.0,7.0,92,0.00,,,0.00,meteohub,2013-09-03 06:47:00,
2013-09-03 02:52:00,64.6,62.2,29.77,West,281,4.0,8.0,92,0.00,,,0.00,meteohub,2013-09-03 06:52:00,
2013-09-03 02:57:00,64.6,61.9,29.77,WNW,283,5.0,10.0,91,0.00,,,0.00,meteohub,2013-09-03 06:57:00,
2013-09-03 03:02:00,64.8,62.1,29.77,West,274,4.0,10.0,91,0.00,,,0.00,meteohub,2013-09-03 07:02:00,
2013-09-03 03:07:00,64.8,62.1,29.77,West,279,7.0,9.0,91,0.00,,,0.00,meteohub,2013-09-03 07:07:00,
2013-09-03 03:12:00,64.8,62.4,29.77,WNW,285,4.0,9.0,92,0.00,,,0.00,meteohub,2013-09-03 07:12:00,
2013-09-03 03:17:00,64.8,62.4,29.77,WNW,291,0.0,9.0,92,0.00,,,0.00,meteohub,2013-09-03 07:17:00,
2013-09-03 03:22:00,64.6,62.2,29.76,WNW,291,1.0,8.0,92,0.00,,,0.00,meteohub,2013-09-03 07:22:00,
2013-09-03 03:27:00,64.4,62.4,29.76,WNW,291,1.0,7.0,93,0.00,,,0.00,meteohub,2013-09-03 07:27:00,
2013-09-03 03:32:00,64.2,62.2,29.77,West,281,4.0,5.0,93,0.00,,,0.00,meteohub,2013-09-03 07:32:00,
2013-09-03 03:38:00,64.0,62.1,29.77,WNW,293,0.0,6.0,93,0.00,,,0.00,meteohub,2013-09-03 07:38:00,
2013-09-03 03:43:00,63.9,61.9,29.77,West,275,0.0,6.0,93,0.00,,,0.00,meteohub,2013-09-03 07:43:00,
2013-09-03 03:48:00,63.9,62.1,29.77,West,275,0.0,6.0,94,0.00,,,0.00,meteohub,2013-09-03 07:48:00,
2013-09-03 03:53:00,63.7,61.9,29.76,West,275,1.0,2.0,94,0.00,,,0.00,meteohub,2013-09-03 07:53:00,
2013-09-03 03:58:00,63.5,61.7,29.76,West,275,0.0,2.0,94,0.00,,,0.00,meteohub,2013-09-03 07:58:00,
2013-09-03 04:03:00,63.3,61.5,29.76,West,275,0.0,2.0,94,0.00,,,0.00,meteohub,2013-09-03 08:03:00,
2013-09-03 04:08:00,63.1,61.3,29.76,West,275,1.0,1.0,94,0.00,,,0.00,meteohub,2013-09-03 08:08:00,
2013-09-03 04:13:00,63.1,61.7,29.77,West,275,0.0,1.0,95,0.00,,,0.00,meteohub,2013-09-03 08:13:00,
2013-09-03 04:18:00,63.0,61.5,29.77,West,275,0.0,1.0,95,0.00,,,0.00,meteohub,2013-09-03 08:18:00,
2013-09-03 04:23:00,63.0,61.5,29.77,West,275,0.0,1.0,95,0.00,,,0.00,meteohub,2013-09-03 08:23:00,
2013-09-03 04:28:00,63.0,61.9,29.77,West,275,1.0,1.0,96,0.00,,,0.00,meteohub,2013-09-03 08:28:00,
2013-09-03 04:33:00,63.0,61.9,29.77,West,275,1.0,2.0,96,0.00,,,0.00,meteohub,2013-09-03 08:33:00,
2013-09-03 04:38:00,63.0,61.9,29.77,West,275,0.0,2.0,96,0.00,,,0.00,meteohub,2013-09-03 08:38:00,
2013-09-03 04:43:00,63.0,61.9,29.76,West,275,0.0,2.0,96,0.00,,,0.00,meteohub,2013-09-03 08:43:00,
2013-09-03 04:48:00,63.1,62.2,29.76,West,275,0.0,2.0,97,0.00,,,0.00,meteohub,2013-09-03 08:48:00,
2013-09-03 04:53:00,63.1,62.2,29.76,West,275,0.0,2.0,97,0.00,,,0.00,meteohub,2013-09-03 08:53:00,
2013-09-03 04:58:00,63.1,62.2,29.76,West,275,0.0,2.0,97,0.00,,,0.00,meteohub,2013-09-03 08:58:00,
2013-09-03 05:03:00,63.1,62.2,29.76,West,275,0.0,2.0,97,0.00,,,0.00,meteohub,2013-09-03 09:03:00,
2013-09-03 05:08:00,63.0,62.1,29.76,West,275,0.0,1.0,97,0.00,,,0.00,meteohub,2013-09-03 09:08:00,
2013-09-03 05:13:00,62.8,61.9,29.76,West,275,1.0,0.0,97,0.00,,,0.00,meteohub,2013-09-03 09:13:00,
2013-09-03 05:18:00,62.8,61.9,29.78,West,275,2.0,2.0,97,0.00,,,0.00,meteohub,2013-09-03 09:18:00,
2013-09-03 05:23:00,62.8,61.9,29.78,West,275,1.0,2.0,97,0.00,,,0.00,meteohub,2013-09-03 09:23:00,
2013-09-03 05:28:00,63.0,62.1,29.78,West,281,1.0,4.0,97,0.00,,,0.00,meteohub,2013-09-03 09:28:00,
2013-09-03 05:33:00,63.0,62.1,29.78,West,277,2.0,6.0,97,0.00,,,0.00,meteohub,2013-09-03 09:33:00,
2013-09-03 05:38:00,63.0,62.1,29.78,WNW,287,2.0,6.0,97,0.00,,,0.00,meteohub,2013-09-03 09:38:00,
2013-09-03 05:43:00,63.0,62.1,29.78,WNW,298,4.0,6.0,97,0.00,,,0.00,meteohub,2013-09-03 09:43:00,
2013-09-03 05:48:00,63.1,62.2,29.78,WNW,289,1.0,6.0,97,0.00,,,0.00,meteohub,2013-09-03 09:48:00,
2013-09-03 05:53:00,63.1,62.2,29.78,WNW,289,4.0,6.0,97,0.00,,,0.00,meteohub,2013-09-03 09:53:00,
2013-09-03 05:58:00,63.1,62.2,29.78,WNW,293,1.0,6.0,97,0.00,,,0.00,meteohub,2013-09-03 09:58:00,
2013-09-03 06:03:00,63.1,62.2,29.78,West,269,2.0,5.0,97,0.00,,,0.00,meteohub,2013-09-03 10:03:00,
2013-09-03 06:08:00,63.1,62.2,29.79,WNW,293,6.0,6.0,97,0.00,,,0.00,meteohub,2013-09-03 10:08:00,
2013-09-03 06:13:00,63.3,62.8,29.80,WNW,282,4.0,6.0,98,0.00,,,0.00,meteohub,2013-09-03 10:13:00,
2013-09-03 06:18:00,63.3,62.8,29.80,West,277,4.0,9.0,98,0.00,,,0.00,meteohub,2013-09-03 10:18:00,
2013-09-03 06:23:00,63.3,62.8,29.81,WSW,253,5.0,9.0,98,0.00,,,0.00,meteohub,2013-09-03 10:23:00,
2013-09-03 06:28:00,62.1,61.0,29.82,West,277,1.0,11.0,96,0.00,,,0.00,meteohub,2013-09-03 10:28:00,
2013-09-03 06:33:00,60.4,58.6,29.83,WSW,245,2.0,13.0,94,0.00,,,0.00,meteohub,2013-09-03 10:33:00,
2013-09-03 06:38:00,59.5,57.7,29.84,NW,306,1.0,13.0,94,0.00,,,0.00,meteohub,2013-09-03 10:38:00,
2013-09-03 06:43:00,58.8,57.4,29.81,WSW,256,1.0,13.0,95,0.00,,,0.00,meteohub,2013-09-03 10:43:00,
2013-09-03 06:48:00,58.5,57.0,29.83,West,269,2.0,13.0,95,0.03,,,0.03,meteohub,2013-09-03 10:48:00,
2013-09-03 06:53:00,58.1,57.0,29.82,WNW,289,1.0,9.0,96,0.04,,,0.04,meteohub,2013-09-03 10:53:00,
2013-09-03 06:58:00,57.9,56.8,29.81,WNW,297,4.0,10.0,96,0.05,,,0.05,meteohub,2013-09-03 10:58:00,
2013-09-03 07:03:00,57.7,56.7,29.80,WNW,293,1.0,10.0,96,0.05,,,0.05,meteohub,2013-09-03 11:03:00,
2013-09-03 07:08:00,57.6,56.5,29.81,WNW,291,1.0,10.0,96,0.05,,,0.05,meteohub,2013-09-03 11:08:00,
2013-09-03 07:13:00,57.6,56.5,29.81,WNW,293,2.0,6.0,96,0.05,,,0.05,meteohub,2013-09-03 11:13:00,
2013-09-03 07:18:00,57.6,56.5,29.82,West,272,2.0,6.0,96,0.05,,,0.05,meteohub,2013-09-03 11:18:00,
2013-09-03 07:23:00,57.6,56.5,29.82,West,277,4.0,6.0,96,0.05,,,0.05,meteohub,2013-09-03 11:23:00,
2013-09-03 07:28:00,57.6,56.1,29.82,WNW,282,4.0,6.0,95,0.05,,,0.05,meteohub,2013-09-03 11:28:00,
2013-09-03 07:34:00,57.6,56.1,29.81,West,268,4.0,6.0,95,0.05,,,0.05,meteohub,2013-09-03 11:34:00,
2013-09-03 07:39:00,57.6,56.1,29.81,West,278,2.0,6.0,95,0.05,,,0.05,meteohub,2013-09-03 11:39:00,
2013-09-03 07:44:00,57.6,56.1,29.81,West,279,4.0,5.0,95,0.05,,,0.05,meteohub,2013-09-03 11:44:00,
2013-09-03 07:49:00,57.7,55.8,29.81,West,269,1.0,6.0,93,0.02,,,0.05,meteohub,2013-09-03 11:49:00,
2013-09-03 07:54:00,58.1,56.1,29.81,WNW,298,2.0,8.0,93,0.01,,,0.05,meteohub,2013-09-03 11:54:00,
2013-09-03 07:59:00,58.5,56.1,29.81,WNW,291,0.0,8.0,92,0.00,,,0.05,meteohub,2013-09-03 11:59:00,
2013-09-03 08:04:00,58.6,56.7,29.81,WNW,290,1.0,8.0,93,0.00,,,0.05,meteohub,2013-09-03 12:04:00,
2013-09-03 08:09:00,58.8,56.8,29.80,WNW,287,4.0,6.0,93,0.00,,,0.05,meteohub,2013-09-03 12:09:00,
2013-09-03 08:14:00,59.0,56.7,29.81,WNW,285,4.0,6.0,92,0.00,,,0.05,meteohub,2013-09-03 12:14:00,
2013-09-03 08:19:00,59.4,56.7,29.81,WNW,291,5.0,6.0,91,0.00,,,0.05,meteohub,2013-09-03 12:19:00,
2013-09-03 08:24:00,59.7,57.4,29.80,WNW,302,5.0,8.0,92,0.00,,,0.05,meteohub,2013-09-03 12:24:00,
2013-09-03 08:29:00,60.1,57.7,29.81,WSW,250,5.0,11.0,92,0.00,,,0.05,meteohub,2013-09-03 12:29:00,
2013-09-03 08:34:00,60.6,58.3,29.80,WNW,289,4.0,11.0,92,0.00,,,0.05,meteohub,2013-09-03 12:34:00,
2013-09-03 08:39:00,61.2,58.8,29.81,WNW,283,6.0,11.0,92,0.00,,,0.05,meteohub,2013-09-03 12:39:00,
2013-09-03 08:44:00,61.3,59.0,29.80,WNW,285,6.0,14.0,92,0.00,,,0.05,meteohub,2013-09-03 12:44:00,
2013-09-03 08:49:00,61.7,59.7,29.81,West,271,2.0,14.0,93,0.00,,,0.05,meteohub,2013-09-03 12:49:00,
2013-09-03 08:54:00,61.9,59.9,29.81,West,280,4.0,14.0,93,0.00,,,0.05,meteohub,2013-09-03 12:54:00,
2013-09-03 08:59:00,61.9,59.9,29.81,WNW,296,1.0,14.0,93,0.00,,,0.05,meteohub,2013-09-03 12:59:00,
2013-09-03 09:04:00,61.5,59.5,29.81,West,281,1.0,7.0,93,0.00,,,0.05,meteohub,2013-09-03 13:04:00,
2013-09-03 09:09:00,61.3,59.5,29.81,West,276,2.0,6.0,94,0.00,,,0.05,meteohub,2013-09-03 13:09:00,
2013-09-03 09:14:00,61.5,59.7,29.81,WNW,295,5.0,6.0,94,0.00,,,0.05,meteohub,2013-09-03 13:14:00,
2013-09-03 09:19:00,61.7,59.7,29.82,WNW,283,1.0,8.0,93,0.00,,,0.05,meteohub,2013-09-03 13:19:00,
2013-09-03 09:24:00,61.5,59.5,29.82,WNW,285,2.0,8.0,93,0.00,,,0.05,meteohub,2013-09-03 13:24:00,
2013-09-03 09:29:00,61.5,59.5,29.82,WNW,294,7.0,8.0,93,0.00,,,0.05,meteohub,2013-09-03 13:29:00,
2013-09-03 09:34:00,61.9,60.1,29.82,WNW,284,5.0,7.0,94,0.00,,,0.05,meteohub,2013-09-03 13:34:00,
2013-09-03 09:39:00,62.1,60.3,29.82,WNW,287,2.0,10.0,94,0.00,,,0.05,meteohub,2013-09-03 13:39:00,
2013-09-03 09:44:00,62.1,60.1,29.82,West,279,2.0,10.0,93,0.00,,,0.05,meteohub,2013-09-03 13:44:00,
2013-09-03 09:49:00,62.4,60.4,29.82,WNW,295,7.0,10.0,93,0.00,,,0.05,meteohub,2013-09-03 13:49:00,
2013-09-03 09:54:00,62.4,60.4,29.82,West,274,2.0,9.0,93,0.00,,,0.05,meteohub,2013-09-03 13:54:00,
2013-09-03 09:59:00,62.1,60.1,29.81,WNW,285,2.0,9.0,93,0.00,,,0.05,meteohub,2013-09-03 13:59:00,
2013-09-03 10:04:00,62.1,60.3,29.82,West,275,4.0,9.0,94,0.00,,,0.05,meteohub,2013-09-03 14:04:00,
2013-09-03 10:09:00,62.4,61.0,29.81,WSW,246,9.0,9.0,95,0.00,,,0.05,meteohub,2013-09-03 14:09:00,
2013-09-03 10:14:00,63.1,61.3,29.81,West,279,7.0,9.0,94,0.00,,,0.05,meteohub,2013-09-03 14:14:00,
2013-09-03 10:19:00,63.9,61.9,29.81,West,267,5.0,11.0,93,0.00,,,0.05,meteohub,2013-09-03 14:19:00,
2013-09-03 10:24:00,64.4,62.4,29.81,West,277,5.0,11.0,93,0.00,,,0.05,meteohub,2013-09-03 14:24:00,
2013-09-03 10:29:00,64.9,62.6,29.81,WNW,288,2.0,11.0,92,0.00,,,0.05,meteohub,2013-09-03 14:29:00,
2013-09-03 10:34:00,65.5,62.8,29.82,West,277,2.0,11.0,91,0.00,,,0.05,meteohub,2013-09-03 14:34:00,
2013-09-03 10:39:00,65.8,63.1,29.82,WNW,295,5.0,9.0,91,0.00,,,0.05,meteohub,2013-09-03 14:39:00,
2013-09-03 10:44:00,66.0,62.6,29.82,WNW,288,4.0,8.0,89,0.00,,,0.05,meteohub,2013-09-03 14:44:00,
2013-09-03 10:49:00,66.6,63.1,29.82,WNW,295,5.0,12.0,89,0.00,,,0.05,meteohub,2013-09-03 14:49:00,
2013-09-03 10:54:00,66.9,63.3,29.82,WSW,250,1.0,12.0,88,0.00,,,0.05,meteohub,2013-09-03 14:54:00,
2013-09-03 10:59:00,67.5,63.1,29.82,NW,308,3.0,12.0,86,0.00,,,0.05,meteohub,2013-09-03 14:59:00,
2013-09-03 11:04:00,67.6,63.7,29.82,WSW,242,1.0,10.0,87,0.00,,,0.05,meteohub,2013-09-03 15:04:00,
2013-09-03 11:09:00,68.2,64.2,29.82,WNW,294,1.0,12.0,87,0.00,,,0.05,meteohub,2013-09-03 15:09:00,
2013-09-03 11:14:00,68.5,63.9,29.82,West,263,6.0,12.0,85,0.00,,,0.05,meteohub,2013-09-03 15:14:00,
2013-09-03 11:19:00,68.5,63.5,29.82,West,259,11.0,11.0,84,0.00,,,0.05,meteohub,2013-09-03 15:19:00,
2013-09-03 11:24:00,68.5,63.9,29.83,WNW,283,5.0,9.0,85,0.00,,,0.05,meteohub,2013-09-03 15:24:00,
2013-09-03 11:29:00,68.7,64.0,29.83,WSW,253,7.0,13.0,85,0.00,,,0.05,meteohub,2013-09-03 15:29:00,
2013-09-03 11:34:00,68.7,63.7,29.83,WNW,292,2.0,13.0,84,0.00,,,0.05,meteohub,2013-09-03 15:34:00,
2013-09-03 11:39:00,69.1,64.0,29.83,WNW,286,9.0,11.0,84,0.00,,,0.05,meteohub,2013-09-03 15:39:00,
2013-09-03 11:44:00,69.3,63.5,29.83,WNW,295,6.0,10.0,82,0.00,,,0.05,meteohub,2013-09-03 15:44:00,
2013-09-03 11:50:00,69.4,63.7,29.83,West,262,1.0,9.0,82,0.00,,,0.05,meteohub,2013-09-03 15:50:00,
2013-09-03 11:55:00,70.0,64.6,29.83,WNW,292,5.0,11.0,83,0.00,,,0.05,meteohub,2013-09-03 15:55:00,
2013-09-03 12:00:00,70.9,65.8,29.83,West,270,0.0,8.0,84,0.00,,,0.05,meteohub,2013-09-03 16:00:00,
2013-09-03 12:05:00,71.8,66.7,29.83,West,275,1.0,7.0,84,0.00,,,0.05,meteohub,2013-09-03 16:05:00,
2013-09-03 12:10:00,72.1,66.7,29.83,WNW,283,2.0,7.0,83,0.00,,,0.05,meteohub,2013-09-03 16:10:00,
2013-09-03 12:15:00,72.3,66.2,29.83,WSW,252,2.0,6.0,81,0.00,,,0.05,meteohub,2013-09-03 16:15:00,
2013-09-03 12:20:00,72.7,66.9,29.83,WSW,249,1.0,5.0,82,0.00,,,0.05,meteohub,2013-09-03 16:20:00,
2013-09-03 12:25:00,73.2,67.5,29.83,WSW,246,1.0,5.0,82,0.00,,,0.05,meteohub,2013-09-03 16:25:00,
2013-09-03 12:30:00,73.0,64.9,29.83,WNW,285,1.0,5.0,76,0.00,,,0.05,meteohub,2013-09-03 16:30:00,
2013-09-03 12:35:00,72.7,65.8,29.83,North,355,1.0,8.0,79,0.00,,,0.05,meteohub,2013-09-03 16:35:00,
2013-09-03 12:40:00,72.5,65.3,29.83,West,260,2.0,8.0,78,0.01,,,0.06,meteohub,2013-09-03 16:40:00,
2013-09-03 12:45:00,72.1,65.7,29.83,WNW,286,2.0,8.0,80,0.01,,,0.06,meteohub,2013-09-03 16:45:00,
2013-09-03 12:51:00,72.0,65.5,29.83,West,267,1.0,8.0,80,0.01,,,0.06,meteohub,2013-09-03 16:51:00,
2013-09-03 12:56:00,71.2,64.4,29.83,West,273,0.0,10.0,79,0.01,,,0.06,meteohub,2013-09-03 16:56:00,
2013-09-03 13:01:00,71.1,63.9,29.83,WNW,291,6.0,10.0,78,0.01,,,0.06,meteohub,2013-09-03 17:01:00,
2013-09-03 13:06:00,71.4,64.9,29.83,WSW,258,2.0,10.0,80,0.01,,,0.06,meteohub,2013-09-03 17:06:00,
2013-09-03 13:11:00,71.1,63.9,29.83,WSW,255,4.0,8.0,78,0.01,,,0.06,meteohub,2013-09-03 17:11:00,
2013-09-03 13:16:00,70.5,63.7,29.83,WSW,255,1.0,12.0,79,0.01,,,0.06,meteohub,2013-09-03 17:16:00,
2013-09-03 13:21:00,70.5,63.7,29.83,WNW,284,1.0,12.0,79,0.01,,,0.06,meteohub,2013-09-03 17:21:00,
2013-09-03 13:26:00,71.1,65.7,29.83,WNW,296,1.0,8.0,83,0.01,,,0.06,meteohub,2013-09-03 17:26:00,
2013-09-03 13:31:00,71.2,63.7,29.83,WNW,285,2.0,7.0,77,0.01,,,0.06,meteohub,2013-09-03 17:31:00,
2013-09-03 13:36:00,71.2,63.3,29.83,West,264,2.0,7.0,76,0.00,,,0.06,meteohub,2013-09-03 17:36:00,
2013-09-03 13:41:00,71.4,63.9,29.83,WSW,254,1.0,7.0,77,0.00,,,0.06,meteohub,2013-09-03 17:41:00,
2013-09-03 13:46:00,72.0,62.8,29.83,WSW,256,4.0,7.0,73,0.00,,,0.06,meteohub,2013-09-03 17:46:00,
2013-09-03 13:51:00,72.1,61.3,29.83,WNW,289,7.0,10.0,69,0.00,,,0.06,meteohub,2013-09-03 17:51:00,
2013-09-03 13:56:00,71.8,63.5,29.83,WSW,258,4.0,10.0,75,0.00,,,0.06,meteohub,2013-09-03 17:56:00,
2013-09-03 14:01:00,72.0,62.8,29.83,WSW,256,2.0,15.0,73,0.00,,,0.06,meteohub,2013-09-03 18:01:00,
2013-09-03 14:06:00,72.3,62.4,29.83,WSW,252,6.0,15.0,71,0.00,,,0.06,meteohub,2013-09-03 18:06:00,
2013-09-03 14:11:00,72.7,61.9,29.83,West,272,7.0,14.0,69,0.00,,,0.06,meteohub,2013-09-03 18:11:00,
2013-09-03 14:16:00,73.0,61.5,29.83,WSW,248,6.0,14.0,67,0.00,,,0.06,meteohub,2013-09-03 18:16:00,
2013-09-03 14:21:00,73.0,61.9,29.83,West,265,4.0,14.0,68,0.00,,,0.06,meteohub,2013-09-03 18:21:00,
2013-09-03 14:26:00,73.4,63.9,29.83,WSW,250,2.0,14.0,72,0.00,,,0.06,meteohub,2013-09-03 18:26:00,
2013-09-03 14:31:00,73.8,63.7,29.83,WSW,252,5.0,14.0,71,0.00,,,0.06,meteohub,2013-09-03 18:31:00,
2013-09-03 14:36:00,73.8,64.9,29.83,West,268,4.0,10.0,74,0.00,,,0.06,meteohub,2013-09-03 18:36:00,
2013-09-03 14:41:00,74.5,65.7,29.82,West,271,5.0,7.0,74,0.00,,,0.06,meteohub,2013-09-03 18:41:00,
2013-09-03 14:46:00,74.5,62.4,29.82,WSW,256,5.0,8.0,66,0.00,,,0.06,meteohub,2013-09-03 18:46:00,
2013-09-03 14:51:00,74.1,62.4,29.82,West,265,2.0,8.0,67,0.00,,,0.06,meteohub,2013-09-03 18:51:00,
2013-09-03 14:56:00,74.5,64.9,29.82,West,259,6.0,11.0,72,0.00,,,0.06,meteohub,2013-09-03 18:56:00,
2013-09-03 15:01:00,74.5,64.4,29.82,West,271,5.0,11.0,71,0.00,,,0.06,meteohub,2013-09-03 19:01:00,
2013-09-03 15:06:00,74.5,61.9,29.82,West,261,4.0,10.0,65,0.00,,,0.06,meteohub,2013-09-03 19:06:00,
2013-09-03 15:11:00,74.1,59.7,29.81,NW,304,6.0,10.0,61,0.00,,,0.06,meteohub,2013-09-03 19:11:00,
2013-09-03 15:16:00,73.9,62.8,29.81,WSW,257,7.0,13.0,68,0.00,,,0.06,meteohub,2013-09-03 19:16:00,
2013-09-03 15:21:00,73.8,61.3,29.81,WNW,302,3.0,13.0,65,0.00,,,0.06,meteohub,2013-09-03 19:21:00,
2013-09-03 15:26:00,73.9,62.8,29.81,West,266,2.0,13.0,68,0.00,,,0.06,meteohub,2013-09-03 19:26:00,
2013-09-03 15:31:00,74.5,63.7,29.81,West,269,4.0,12.0,69,0.00,,,0.06,meteohub,2013-09-03 19:31:00,
2013-09-03 15:36:00,74.8,64.0,29.81,West,269,4.0,11.0,69,0.00,,,0.06,meteohub,2013-09-03 19:36:00,
2013-09-03 15:41:00,75.0,63.3,29.81,WNW,293,5.0,11.0,67,0.00,,,0.06,meteohub,2013-09-03 19:41:00,
2013-09-03 15:46:00,75.4,62.8,29.81,West,268,5.0,9.0,65,0.00,,,0.06,meteohub,2013-09-03 19:46:00,
2013-09-03 15:51:00,75.2,63.5,29.81,WNW,289,5.0,10.0,67,0.00,,,0.06,meteohub,2013-09-03 19:51:00,
2013-09-03 15:56:00,75.4,63.1,29.81,West,272,10.0,10.0,66,0.00,,,0.06,meteohub,2013-09-03 19:56:00,
2013-09-03 16:02:00,75.0,63.3,29.80,West,269,2.0,10.0,67,0.00,,,0.06,meteohub,2013-09-03 20:02:00,
2013-09-03 16:07:00,75.0,63.0,29.80,West,266,4.0,10.0,66,0.00,,,0.06,meteohub,2013-09-03 20:07:00,
2013-09-03 16:12:00,75.2,65.1,29.80,WNW,291,4.0,11.0,71,0.00,,,0.06,meteohub,2013-09-03 20:12:00,
2013-09-03 16:17:00,75.2,64.8,29.80,West,268,5.0,11.0,70,0.00,,,0.06,meteohub,2013-09-03 20:17:00,
2013-09-03 16:22:00,75.4,64.0,29.80,WNW,294,2.0,9.0,68,0.00,,,0.06,meteohub,2013-09-03 20:22:00,
2013-09-03 16:27:00,75.6,63.0,29.80,West,263,4.0,12.0,65,0.00,,,0.06,meteohub,2013-09-03 20:27:00,
2013-09-03 16:32:00,75.7,64.0,29.80,WSW,253,4.0,12.0,67,0.00,,,0.06,meteohub,2013-09-03 20:32:00,
2013-09-03 16:37:00,75.7,64.0,29.80,West,270,2.0,12.0,67,0.00,,,0.06,meteohub,2013-09-03 20:37:00,
2013-09-03 16:42:00,75.7,64.4,29.80,West,266,1.0,8.0,68,0.00,,,0.06,meteohub,2013-09-03 20:42:00,
2013-09-03 16:47:00,75.7,63.5,29.80,West,269,1.0,8.0,66,0.00,,,0.06,meteohub,2013-09-03 20:47:00,
2013-09-03 16:52:00,75.6,65.8,29.79,SSW,210,0.0,9.0,72,0.00,,,0.06,meteohub,2013-09-03 20:52:00,
2013-09-03 16:57:00,75.7,66.4,29.80,West,264,4.0,9.0,73,0.00,,,0.06,meteohub,2013-09-03 20:57:00,
2013-09-03 17:02:00,75.7,65.7,29.79,West,265,1.0,6.0,71,0.00,,,0.06,meteohub,2013-09-03 21:02:00,
2013-09-03 17:07:00,75.6,65.1,29.79,West,278,4.0,6.0,70,0.00,,,0.06,meteohub,2013-09-03 21:07:00,
2013-09-03 17:12:00,75.6,65.1,29.79,West,281,2.0,6.0,70,0.00,,,0.06,meteohub,2013-09-03 21:12:00,
2013-09-03 17:17:00,75.2,64.8,29.79,WNW,286,0.0,6.0,70,0.00,,,0.06,meteohub,2013-09-03 21:17:00,
2013-09-03 17:22:00,75.2,65.1,29.79,West,277,4.0,6.0,71,0.00,,,0.06,meteohub,2013-09-03 21:22:00,
2013-09-03 17:27:00,75.0,64.2,29.80,WNW,287,2.0,8.0,69,0.00,,,0.06,meteohub,2013-09-03 21:27:00,
2013-09-03 17:32:00,74.8,63.5,29.79,WNW,282,4.0,8.0,68,0.00,,,0.06,meteohub,2013-09-03 21:32:00,
2013-09-03 17:37:00,74.7,63.3,29.80,West,270,5.0,8.0,68,0.00,,,0.06,meteohub,2013-09-03 21:37:00,
2013-09-03 17:42:00,74.1,64.0,29.80,West,264,1.0,10.0,71,0.00,,,0.06,meteohub,2013-09-03 21:42:00,
2013-09-03 17:47:00,73.6,63.1,29.80,WNW,289,4.0,10.0,70,0.00,,,0.06,meteohub,2013-09-03 21:47:00,
2013-09-03 17:52:00,73.0,63.5,29.80,West,277,6.0,10.0,72,0.00,,,0.06,meteohub,2013-09-03 21:52:00,
2013-09-03 17:57:00,73.2,64.4,29.80,West,273,2.0,9.0,74,0.00,,,0.06,meteohub,2013-09-03 21:57:00,
2013-09-03 18:02:00,73.6,64.8,29.80,West,261,2.0,9.0,74,0.00,,,0.06,meteohub,2013-09-03 22:02:00,
2013-09-03 18:07:00,73.8,64.6,29.80,West,281,1.0,7.0,73,0.00,,,0.06,meteohub,2013-09-03 22:07:00,
2013-09-03 18:12:00,73.9,64.4,29.80,West,263,4.0,5.0,72,0.00,,,0.06,meteohub,2013-09-03 22:12:00,
2013-09-03 18:17:00,73.6,64.4,29.80,WSW,258,2.0,5.0,73,0.00,,,0.06,meteohub,2013-09-03 22:17:00,
2013-09-03 18:22:00,73.0,64.2,29.80,West,262,1.0,5.0,74,0.00,,,0.06,meteohub,2013-09-03 22:22:00,
2013-09-03 18:27:00,72.7,64.2,29.80,West,281,0.0,5.0,75,0.00,,,0.06,meteohub,2013-09-03 22:27:00,
2013-09-03 18:32:00,72.7,65.1,29.81,West,274,4.0,5.0,77,0.00,,,0.06,meteohub,2013-09-03 22:32:00,
2013-09-03 18:37:00,72.9,64.8,29.81,West,271,1.0,5.0,76,0.00,,,0.06,meteohub,2013-09-03 22:37:00,
2013-09-03 18:42:00,72.7,64.2,29.81,West,268,2.0,5.0,75,0.00,,,0.06,meteohub,2013-09-03 22:42:00,
2013-09-03 18:47:00,72.3,63.9,29.81,West,272,4.0,5.0,75,0.00,,,0.06,meteohub,2013-09-03 22:47:00,
2013-09-03 18:52:00,72.0,64.0,29.81,West,278,1.0,5.0,76,0.00,,,0.06,meteohub,2013-09-03 22:52:00,
2013-09-03 18:57:00,71.6,64.0,29.80,West,278,1.0,6.0,77,0.00,,,0.06,meteohub,2013-09-03 22:57:00,
2013-09-03 19:02:00,71.4,63.9,29.80,West,279,2.0,6.0,77,0.00,,,0.06,meteohub,2013-09-03 23:02:00,
2013-09-03 19:07:00,71.1,63.9,29.80,West,279,2.0,5.0,78,0.00,,,0.06,meteohub,2013-09-03 23:07:00,
2013-09-03 19:12:00,70.7,63.5,29.80,West,281,1.0,4.0,78,0.00,,,0.06,meteohub,2013-09-03 23:12:00,
2013-09-03 19:18:00,70.3,63.1,29.80,West,281,0.0,5.0,78,0.00,,,0.06,meteohub,2013-09-03 23:18:00,
2013-09-03 19:23:00,70.2,62.6,29.81,WSW,254,2.0,5.0,77,0.00,,,0.06,meteohub,2013-09-03 23:23:00,
2013-09-03 19:28:00,70.0,62.4,29.81,West,271,1.0,5.0,77,0.00,,,0.06,meteohub,2013-09-03 23:28:00,
2013-09-03 19:33:00,69.8,61.9,29.81,West,276,0.0,4.0,76,0.00,,,0.06,meteohub,2013-09-03 23:33:00,
2013-09-03 19:38:00,69.4,61.2,29.81,West,278,0.0,4.0,75,0.00,,,0.06,meteohub,2013-09-03 23:38:00,
2013-09-03 19:43:00,69.1,61.5,29.82,West,279,2.0,4.0,77,0.00,,,0.06,meteohub,2013-09-03 23:43:00,
2013-09-03 19:48:00,68.5,61.3,29.82,WNW,283,1.0,4.0,78,0.00,,,0.06,meteohub,2013-09-03 23:48:00,
2013-09-03 19:53:00,68.4,61.9,29.83,WNW,283,1.0,4.0,80,0.00,,,0.06,meteohub,2013-09-03 23:53:00,
2013-09-03 19:58:00,68.0,61.9,29.83,West,280,4.0,4.0,81,0.00,,,0.06,meteohub,2013-09-03 23:58:00,
2013-09-03 20:03:00,67.8,61.7,29.83,West,275,1.0,4.0,81,0.00,,,0.06,meteohub,2013-09-04 00:03:00,
2013-09-03 20:08:00,67.6,61.5,29.83,West,278,1.0,4.0,81,0.00,,,0.00,meteohub,2013-09-04 00:08:00,
2013-09-03 20:13:00,67.5,61.3,29.83,West,281,2.0,4.0,81,0.00,,,0.00,meteohub,2013-09-04 00:13:00,
2013-09-03 20:18:00,67.5,61.3,29.83,WNW,292,0.0,4.0,81,0.00,,,0.00,meteohub,2013-09-04 00:18:00,
2013-09-03 20:23:00,67.3,61.2,29.83,WNW,292,1.0,4.0,81,0.00,,,0.00,meteohub,2013-09-04 00:23:00,
2013-09-03 20:28:00,66.9,61.0,29.84,WNW,292,1.0,4.0,81,0.00,,,0.00,meteohub,2013-09-04 00:28:00,
2013-09-03 20:33:00,66.7,60.8,29.84,WNW,291,1.0,2.0,81,0.00,,,0.00,meteohub,2013-09-04 00:33:00,
2013-09-03 20:38:00,66.7,60.8,29.84,West,278,1.0,4.0,81,0.00,,,0.00,meteohub,2013-09-04 00:38:00,
2013-09-03 20:43:00,66.7,60.8,29.84,West,277,2.0,4.0,81,0.00,,,0.00,meteohub,2013-09-04 00:43:00,
2013-09-03 20:48:00,66.6,61.0,29.85,West,281,2.0,4.0,82,0.00,,,0.00,meteohub,2013-09-04 00:48:00,
2013-09-03 20:53:00,66.6,61.0,29.85,WNW,291,0.0,5.0,82,0.00,,,0.00,meteohub,2013-09-04 00:53:00,
2013-09-03 20:58:00,66.4,61.0,29.85,West,279,2.0,5.0,83,0.00,,,0.00,meteohub,2013-09-04 00:58:00,
2013-09-03 21:03:00,66.2,60.8,29.86,WNW,287,2.0,5.0,83,0.00,,,0.00,meteohub,2013-09-04 01:03:00,
2013-09-03 21:08:00,66.0,61.0,29.86,WNW,285,2.0,5.0,84,0.00,,,0.00,meteohub,2013-09-04 01:08:00,
2013-09-03 21:13:00,66.0,61.0,29.86,WNW,286,4.0,6.0,84,0.00,,,0.00,meteohub,2013-09-04 01:13:00,
2013-09-03 21:18:00,65.8,61.2,29.86,WNW,286,1.0,6.0,85,0.00,,,0.00,meteohub,2013-09-04 01:18:00,
2013-09-03 21:23:00,65.7,61.0,29.86,West,279,4.0,6.0,85,0.00,,,0.00,meteohub,2013-09-04 01:23:00,
2013-09-03 21:28:00,65.7,61.0,29.86,WNW,285,4.0,5.0,85,0.00,,,0.00,meteohub,2013-09-04 01:28:00,
2013-09-03 21:33:00,65.8,61.2,29.87,WNW,282,2.0,6.0,85,0.00,,,0.00,meteohub,2013-09-04 01:33:00,
2013-09-03 21:38:00,65.8,61.2,29.87,WNW,287,5.0,6.0,85,0.00,,,0.00,meteohub,2013-09-04 01:38:00,
2013-09-03 21:43:00,65.8,61.2,29.87,West,281,2.0,6.0,85,0.00,,,0.00,meteohub,2013-09-04 01:43:00,
2013-09-03 21:48:00,65.8,61.2,29.87,West,273,2.0,6.0,85,0.00,,,0.00,meteohub,2013-09-04 01:48:00,
2013-09-03 21:53:00,65.7,61.0,29.87,WNW,283,4.0,7.0,85,0.00,,,0.00,meteohub,2013-09-04 01:53:00,
2013-09-03 21:58:00,65.7,61.0,29.87,West,270,2.0,7.0,85,0.00,,,0.00,meteohub,2013-09-04 01:58:00,
2013-09-03 22:03:00,65.7,61.0,29.87,West,279,4.0,7.0,85,0.00,,,0.00,meteohub,2013-09-04 02:03:00,
2013-09-03 22:08:00,65.5,60.8,29.88,West,272,2.0,6.0,85,0.00,,,0.00,meteohub,2013-09-04 02:08:00,
2013-09-03 22:13:00,65.5,60.8,29.87,WNW,286,4.0,6.0,85,0.00,,,0.00,meteohub,2013-09-04 02:13:00,
2013-09-03 22:18:00,65.1,60.4,29.87,West,277,2.0,6.0,85,0.00,,,0.00,meteohub,2013-09-04 02:18:00,
2013-09-03 22:23:00,65.1,60.4,29.88,West,274,1.0,6.0,85,0.00,,,0.00,meteohub,2013-09-04 02:23:00,
2013-09-03 22:28:00,64.9,59.9,29.88,West,279,2.0,6.0,84,0.00,,,0.00,meteohub,2013-09-04 02:28:00,
2013-09-03 22:33:00,65.1,60.1,29.88,WNW,294,2.0,6.0,84,0.00,,,0.00,meteohub,2013-09-04 02:33:00,
2013-09-03 22:38:00,64.9,59.9,29.88,West,281,2.0,6.0,84,0.00,,,0.00,meteohub,2013-09-04 02:38:00,
2013-09-03 22:43:00,65.1,60.1,29.88,WNW,288,1.0,5.0,84,0.00,,,0.00,meteohub,2013-09-04 02:43:00,
2013-09-03 22:48:00,64.9,59.9,29.88,WNW,288,0.0,5.0,84,0.00,,,0.00,meteohub,2013-09-04 02:48:00,
2013-09-03 22:53:00,64.8,59.5,29.88,WNW,288,1.0,4.0,83,0.00,,,0.00,meteohub,2013-09-04 02:53:00,
2013-09-03 22:58:00,64.8,59.9,29.88,WNW,288,1.0,2.0,84,0.00,,,0.00,meteohub,2013-09-04 02:58:00,
2013-09-03 23:03:00,64.6,59.7,29.88,WNW,288,2.0,2.0,84,0.00,,,0.00,meteohub,2013-09-04 03:03:00,
2013-09-03 23:08:00,64.4,59.7,29.88,West,279,2.0,4.0,85,0.00,,,0.00,meteohub,2013-09-04 03:08:00,
2013-09-03 23:13:00,64.4,59.7,29.89,West,272,2.0,4.0,85,0.00,,,0.00,meteohub,2013-09-04 03:13:00,
2013-09-03 23:19:00,64.6,59.9,29.89,West,279,1.0,6.0,85,0.00,,,0.00,meteohub,2013-09-04 03:19:00,
2013-09-03 23:24:00,64.6,59.9,29.89,West,281,1.0,6.0,85,0.00,,,0.00,meteohub,2013-09-04 03:24:00,
2013-09-03 23:29:00,64.2,59.9,29.89,West,281,2.0,6.0,86,0.00,,,0.00,meteohub,2013-09-04 03:29:00,
2013-09-03 23:33:00,64.2,59.9,29.89,West,279,1.0,4.0,86,0.00,,,0.00,meteohub,2013-09-04 03:33:00,
2013-09-03 23:39:00,64.0,59.7,29.89,West,278,1.0,2.0,86,0.00,,,0.00,meteohub,2013-09-04 03:39:00,
2013-09-03 23:44:00,63.9,59.5,29.89,WNW,289,1.0,2.0,86,0.00,,,0.00,meteohub,2013-09-04 03:44:00,
2013-09-03 23:49:00,63.7,59.7,29.89,West,272,1.0,2.0,87,0.00,,,0.00,meteohub,2013-09-04 03:49:00,
2013-09-03 23:54:00,63.7,59.7,29.89,West,281,1.0,4.0,87,0.00,,,0.00,meteohub,2013-09-04 03:54:00,
2013-09-03 23:59:00,63.7,60.1,29.89,West,280,1.0,4.0,88,0.00,,,0.00,meteohub,2013-09-04 03:59:00,